< Typhoon 198514 1985 Season Typhoon 198516 >
Typhoon 198515 (SKIP)
General InformationTrack Information on Google MapsDetailed Wind InformationList of All Images || Disaster Info.ResourceGoogle EarthGE AnimationAtom FeedGeoJSON
Detalied Best Track (Time Zone = UTC)
Year Month Day Hour Lat. Long. Pressure (hPa) Wind (kt) Class Image Chart
1985 8 30 18 12.5 180.5 1002 0 7 Image Chart
1985 8 31 00 13.0 179.0 1002 0 2 Image Chart
1985 8 31 06 13.5 178.5 1000 0 2 Image Chart
1985 8 31 12 15.0 177.3 996 40 3 Image Chart
1985 8 31 18 15.5 177.0 992 45 3 Image Chart
1985 9 1 00 16.0 176.5 990 45 3 Image Chart
1985 9 1 06 16.7 176.0 985 45 3 Image Chart
1985 9 1 12 17.2 175.6 980 55 4 Image Chart
1985 9 1 18 17.4 175.3 990 55 4 Image Chart
1985 9 2 00 17.8 174.9 994 50 4 Image Chart
1985 9 2 06 17.9 174.5 996 40 3 Image Chart
1985 9 2 12 18.2 173.6 996 45 3 Image Chart
1985 9 2 18 18.2 173.0 994 50 4 Image Chart
1985 9 3 00 18.4 172.4 994 45 3 Image Chart
1985 9 3 06 18.8 172.0 994 45 3 Image Chart
1985 9 3 12 19.4 171.8 996 45 3 Image Chart
1985 9 3 18 20.0 171.5 998 45 3 Image Chart
1985 9 4 00 20.6 171.4 998 45 3 Image Chart
1985 9 4 06 21.1 171.4 998 40 3 Image Chart
1985 9 4 12 21.3 172.0 998 45 3 Image Chart
1985 9 4 18 21.6 173.0 998 45 3 Image Chart
1985 9 5 00 22.0 173.7 998 40 3 Image Chart
1985 9 5 06 22.5 174.6 994 45 3 Image Chart
1985 9 5 12 23.7 175.1 985 60 4 Image Chart
1985 9 5 18 24.5 174.9 985 60 4 Image Chart
1985 9 6 00 25.2 174.7 990 50 4 Image Chart
1985 9 6 06 26.0 174.5 990 50 4 Image Chart
1985 9 6 12 27.4 174.6 990 50 4 Image Chart
1985 9 6 18 28.7 174.8 985 50 4 Image Chart
1985 9 7 00 30.2 175.0 975 70 5 Image Chart
1985 9 7 06 31.7 176.2 970 75 5 Image Chart
1985 9 7 12 33.4 177.4 970 75 5 Image Chart
1985 9 7 18 35.2 178.8 970 65 5 Image Chart
1985 9 8 00 37.0 180.0 975 60 4 Image Chart
1985 9 8 06 38.8 181.4 980 60 3 Image Chart
Japan Meteorological Agency Best Track Data | Correction Date : 2013-11-22
< Typhoon 198514 1985 Season Typhoon 198516 >

Help